Terminal Aerodrome Forecast
Issued by NWS

Home | Current Version | Previous Version | Text Only | Print | Product List | Glossary Off
Versions: 1 2 3 4 5 6 7 8 9 10 11 12 13 14 15 16

370
FTUS43 KABR 242322
TAFPIR
TAF
KPIR 242322Z 2500/2524 33016KT P6SM OVC045
     FM250300 34007KT P6SM SCT250
     FM250700 VRB03KT P6SM SCT200
     FM251400 19005KT P6SM BKN100=

USA.gov is the U.S. government's official web portal to all federal, state and local government web resources and services.